sensor_id;sensor_type;location;lat;lon;timestamp;temperature;humidity
2929;DHT22;1474;51.460;7.150;2023-05-16T00:00:33;12.60;82.30
2929;DHT22;1474;51.460;7.150;2023-05-16T00:03:03;12.70;82.00
2929;DHT22;1474;51.460;7.150;2023-05-16T00:05:30;12.50;81.50
2929;DHT22;1474;51.460;7.150;2023-05-16T00:07:56;12.50;82.30
2929;DHT22;1474;51.460;7.150;2023-05-16T00:10:22;12.50;82.10
2929;DHT22;1474;51.460;7.150;2023-05-16T00:12:47;12.40;82.10
2929;DHT22;1474;51.460;7.150;2023-05-16T00:15:16;12.50;82.20
2929;DHT22;1474;51.460;7.150;2023-05-16T00:17:44;12.50;82.40
2929;DHT22;1474;51.460;7.150;2023-05-16T00:20:12;12.40;82.60
2929;DHT22;1474;51.460;7.150;2023-05-16T00:22:39;12.40;82.70
2929;DHT22;1474;51.460;7.150;2023-05-16T00:25:05;12.30;82.80
2929;DHT22;1474;51.460;7.150;2023-05-16T00:27:33;12.20;82.60
2929;DHT22;1474;51.460;7.150;2023-05-16T00:30:01;12.20;82.80
2929;DHT22;1474;51.460;7.150;2023-05-16T00:32:28;12.20;82.80
2929;DHT22;1474;51.460;7.150;2023-05-16T00:34:53;12.20;83.00
2929;DHT22;1474;51.460;7.150;2023-05-16T00:37:19;12.20;83.00
2929;DHT22;1474;51.460;7.150;2023-05-16T00:39:45;12.10;82.70
2929;DHT22;1474;51.460;7.150;2023-05-16T00:42:10;12.10;82.40
2929;DHT22;1474;51.460;7.150;2023-05-16T00:44:36;12.10;82.40
2929;DHT22;1474;51.460;7.150;2023-05-16T00:47:02;12.20;82.50
2929;DHT22;1474;51.460;7.150;2023-05-16T00:49:28;12.10;82.30
2929;DHT22;1474;51.460;7.150;2023-05-16T00:51:55;12.10;82.10
2929;DHT22;1474;51.460;7.150;2023-05-16T00:54:23;12.00;82.70
2929;DHT22;1474;51.460;7.150;2023-05-16T00:56:51;12.00;82.60
2929;DHT22;1474;51.460;7.150;2023-05-16T00:59:18;12.00;82.10
2929;DHT22;1474;51.460;7.150;2023-05-16T01:01:45;11.80;81.90
2929;DHT22;1474;51.460;7.150;2023-05-16T01:04:13;11.70;82.80
2929;DHT22;1474;51.460;7.150;2023-05-16T01:06:38;11.70;82.70
2929;DHT22;1474;51.460;7.150;2023-05-16T01:09:05;11.70;83.00
2929;DHT22;1474;51.460;7.150;2023-05-16T01:14:55;11.70;82.60
2929;DHT22;1474;51.460;7.150;2023-05-16T01:28:17;11.60;83.00
2929;DHT22;1474;51.460;7.150;2023-05-16T01:30:43;11.50;83.00
2929;DHT22;1474;51.460;7.150;2023-05-16T01:33:09;11.50;82.70
2929;DHT22;1474;51.460;7.150;2023-05-16T01:35:42;11.40;82.80
2929;DHT22;1474;51.460;7.150;2023-05-16T01:41:20;11.20;83.00
2929;DHT22;1474;51.460;7.150;2023-05-16T01:43:58;11.10;82.70
2929;DHT22;1474;51.460;7.150;2023-05-16T01:46:33;11.00;82.60
2929;DHT22;1474;51.460;7.150;2023-05-16T01:49:16;11.00;83.10
2929;DHT22;1474;51.460;7.150;2023-05-16T01:51:53;10.90;83.00
2929;DHT22;1474;51.460;7.150;2023-05-16T01:54:24;10.80;83.00
2929;DHT22;1474;51.460;7.150;2023-05-16T01:56:55;10.70;83.20
2929;DHT22;1474;51.460;7.150;2023-05-16T01:59:23;10.70;83.20
2929;DHT22;1474;51.460;7.150;2023-05-16T02:02:01;10.60;82.90
2929;DHT22;1474;51.460;7.150;2023-05-16T02:04:27;10.60;83.50
2929;DHT22;1474;51.460;7.150;2023-05-16T02:06:53;10.60;83.80
2929;DHT22;1474;51.460;7.150;2023-05-16T02:09:19;10.50;82.90
2929;DHT22;1474;51.460;7.150;2023-05-16T02:11:45;10.60;83.40
2929;DHT22;1474;51.460;7.150;2023-05-16T02:14:11;10.60;83.20
2929;DHT22;1474;51.460;7.150;2023-05-16T02:16:38;10.50;83.00
2929;DHT22;1474;51.460;7.150;2023-05-16T02:19:04;10.50;83.30
2929;DHT22;1474;51.460;7.150;2023-05-16T02:21:29;10.50;82.90
2929;DHT22;1474;51.460;7.150;2023-05-16T02:23:55;10.50;82.90
2929;DHT22;1474;51.460;7.150;2023-05-16T02:26:21;10.40;83.50
2929;DHT22;1474;51.460;7.150;2023-05-16T02:28:47;10.50;83.10
2929;DHT22;1474;51.460;7.150;2023-05-16T02:31:28;10.40;83.10
2929;DHT22;1474;51.460;7.150;2023-05-16T02:33:56;10.50;83.20
2929;DHT22;1474;51.460;7.150;2023-05-16T02:36:23;10.50;83.10
2929;DHT22;1474;51.460;7.150;2023-05-16T02:38:49;10.50;83.00
2929;DHT22;1474;51.460;7.150;2023-05-16T02:41:15;10.50;82.70
2929;DHT22;1474;51.460;7.150;2023-05-16T02:43:41;10.60;82.80
2929;DHT22;1474;51.460;7.150;2023-05-16T02:46:25;10.60;83.00
2929;DHT22;1474;51.460;7.150;2023-05-16T02:48:57;10.60;82.50
2929;DHT22;1474;51.460;7.150;2023-05-16T02:51:25;10.50;82.40
2929;DHT22;1474;51.460;7.150;2023-05-16T02:53:52;10.60;82.70
2929;DHT22;1474;51.460;7.150;2023-05-16T02:56:18;10.60;82.80
2929;DHT22;1474;51.460;7.150;2023-05-16T02:58:47;10.60;82.10
2929;DHT22;1474;51.460;7.150;2023-05-16T03:01:13;10.70;82.60
2929;DHT22;1474;51.460;7.150;2023-05-16T03:03:40;10.60;82.40
2929;DHT22;1474;51.460;7.150;2023-05-16T03:06:07;10.70;82.40
2929;DHT22;1474;51.460;7.150;2023-05-16T03:08:33;10.70;82.10
2929;DHT22;1474;51.460;7.150;2023-05-16T03:10:59;10.70;82.20
2929;DHT22;1474;51.460;7.150;2023-05-16T03:13:25;10.70;81.10
2929;DHT22;1474;51.460;7.150;2023-05-16T03:15:52;10.70;81.80
2929;DHT22;1474;51.460;7.150;2023-05-16T03:18:18;10.80;82.10
2929;DHT22;1474;51.460;7.150;2023-05-16T03:20:44;10.70;81.80
2929;DHT22;1474;51.460;7.150;2023-05-16T03:23:09;10.70;81.50
2929;DHT22;1474;51.460;7.150;2023-05-16T03:25:36;10.70;81.20
2929;DHT22;1474;51.460;7.150;2023-05-16T03:28:04;10.60;81.00
2929;DHT22;1474;51.460;7.150;2023-05-16T03:30:31;10.60;81.30
2929;DHT22;1474;51.460;7.150;2023-05-16T03:32:57;10.50;81.10
2929;DHT22;1474;51.460;7.150;2023-05-16T03:35:23;10.40;81.30
2929;DHT22;1474;51.460;7.150;2023-05-16T03:37:49;10.40;81.50
2929;DHT22;1474;51.460;7.150;2023-05-16T03:40:14;10.40;81.00
2929;DHT22;1474;51.460;7.150;2023-05-16T03:42:40;10.40;81.00
2929;DHT22;1474;51.460;7.150;2023-05-16T03:45:07;10.40;81.20
2929;DHT22;1474;51.460;7.150;2023-05-16T03:47:33;10.30;81.30
2929;DHT22;1474;51.460;7.150;2023-05-16T03:49:59;10.30;80.80
2929;DHT22;1474;51.460;7.150;2023-05-16T03:52:24;10.20;81.10
2929;DHT22;1474;51.460;7.150;2023-05-16T03:54:50;10.20;80.80
2929;DHT22;1474;51.460;7.150;2023-05-16T03:57:16;10.20;81.10
2929;DHT22;1474;51.460;7.150;2023-05-16T03:59:42;10.10;80.10
2929;DHT22;1474;51.460;7.150;2023-05-16T04:02:08;10.00;79.40
2929;DHT22;1474;51.460;7.150;2023-05-16T04:04:34;9.90;79.60
2929;DHT22;1474;51.460;7.150;2023-05-16T04:07:03;10.00;79.90
2929;DHT22;1474;51.460;7.150;2023-05-16T04:09:29;9.90;80.20
2929;DHT22;1474;51.460;7.150;2023-05-16T04:11:55;9.90;80.70
2929;DHT22;1474;51.460;7.150;2023-05-16T04:14:22;9.90;80.50
2929;DHT22;1474;51.460;7.150;2023-05-16T04:16:48;9.90;79.60
2929;DHT22;1474;51.460;7.150;2023-05-16T04:19:14;9.80;78.90
2929;DHT22;1474;51.460;7.150;2023-05-16T04:21:40;9.80;80.40
2929;DHT22;1474;51.460;7.150;2023-05-16T04:24:06;9.80;80.80
2929;DHT22;1474;51.460;7.150;2023-05-16T04:26:32;9.90;80.00
2929;DHT22;1474;51.460;7.150;2023-05-16T04:28:58;9.90;80.30
2929;DHT22;1474;51.460;7.150;2023-05-16T04:31:24;9.80;79.40
2929;DHT22;1474;51.460;7.150;2023-05-16T04:33:50;9.80;79.50
2929;DHT22;1474;51.460;7.150;2023-05-16T04:36:17;9.80;79.80
2929;DHT22;1474;51.460;7.150;2023-05-16T04:38:43;9.80;80.50
2929;DHT22;1474;51.460;7.150;2023-05-16T04:41:11;9.80;80.00
2929;DHT22;1474;51.460;7.150;2023-05-16T04:43:37;9.80;80.20
2929;DHT22;1474;51.460;7.150;2023-05-16T04:46:04;9.90;79.80
2929;DHT22;1474;51.460;7.150;2023-05-16T04:48:32;9.90;79.90
2929;DHT22;1474;51.460;7.150;2023-05-16T04:50:58;9.80;79.10
2929;DHT22;1474;51.460;7.150;2023-05-16T04:53:24;9.80;79.50
2929;DHT22;1474;51.460;7.150;2023-05-16T04:55:53;9.80;79.70
2929;DHT22;1474;51.460;7.150;2023-05-16T04:58:19;9.80;79.90
2929;DHT22;1474;51.460;7.150;2023-05-16T05:00:45;9.80;80.30
2929;DHT22;1474;51.460;7.150;2023-05-16T05:03:11;9.90;80.10
2929;DHT22;1474;51.460;7.150;2023-05-16T05:05:37;10.00;79.30
2929;DHT22;1474;51.460;7.150;2023-05-16T05:08:03;10.00;79.50
2929;DHT22;1474;51.460;7.150;2023-05-16T05:10:29;10.10;80.10
2929;DHT22;1474;51.460;7.150;2023-05-16T05:12:56;10.20;79.10
2929;DHT22;1474;51.460;7.150;2023-05-16T05:15:22;10.30;79.30
2929;DHT22;1474;51.460;7.150;2023-05-16T05:17:48;10.50;78.70
2929;DHT22;1474;51.460;7.150;2023-05-16T05:20:13;10.60;78.10
2929;DHT22;1474;51.460;7.150;2023-05-16T05:22:39;10.80;76.60
2929;DHT22;1474;51.460;7.150;2023-05-16T05:25:05;11.00;75.50
2929;DHT22;1474;51.460;7.150;2023-05-16T05:27:31;11.20;75.50
2929;DHT22;1474;51.460;7.150;2023-05-16T05:29:57;11.40;74.70
2929;DHT22;1474;51.460;7.150;2023-05-16T05:32:23;11.60;73.70
2929;DHT22;1474;51.460;7.150;2023-05-16T05:34:49;11.80;72.30
2929;DHT22;1474;51.460;7.150;2023-05-16T05:37:15;11.90;71.20
2929;DHT22;1474;51.460;7.150;2023-05-16T05:39:40;12.00;71.40
2929;DHT22;1474;51.460;7.150;2023-05-16T05:42:06;12.20;71.40
2929;DHT22;1474;51.460;7.150;2023-05-16T05:44:32;12.40;70.60
2929;DHT22;1474;51.460;7.150;2023-05-16T05:46:58;12.60;69.80
2929;DHT22;1474;51.460;7.150;2023-05-16T05:49:25;12.60;68.80
2929;DHT22;1474;51.460;7.150;2023-05-16T05:51:52;12.60;69.10
2929;DHT22;1474;51.460;7.150;2023-05-16T05:54:18;12.70;69.60
2929;DHT22;1474;51.460;7.150;2023-05-16T05:56:44;12.80;68.90
2929;DHT22;1474;51.460;7.150;2023-05-16T05:59:10;13.00;68.60
2929;DHT22;1474;51.460;7.150;2023-05-16T06:01:36;13.10;68.40
2929;DHT22;1474;51.460;7.150;2023-05-16T06:04:03;13.10;67.90
2929;DHT22;1474;51.460;7.150;2023-05-16T06:06:28;13.00;67.70
2929;DHT22;1474;51.460;7.150;2023-05-16T06:08:55;13.00;68.10
2929;DHT22;1474;51.460;7.150;2023-05-16T06:11:21;12.80;66.40
2929;DHT22;1474;51.460;7.150;2023-05-16T06:13:47;12.60;67.60
2929;DHT22;1474;51.460;7.150;2023-05-16T06:16:12;12.60;68.80
2929;DHT22;1474;51.460;7.150;2023-05-16T06:18:38;12.50;69.80
2929;DHT22;1474;51.460;7.150;2023-05-16T06:21:04;12.50;68.60
2929;DHT22;1474;51.460;7.150;2023-05-16T06:23:31;12.40;69.50
2929;DHT22;1474;51.460;7.150;2023-05-16T06:25:57;12.40;70.60
2929;DHT22;1474;51.460;7.150;2023-05-16T06:28:23;12.50;71.40
2929;DHT22;1474;51.460;7.150;2023-05-16T06:30:49;12.60;70.70
2929;DHT22;1474;51.460;7.150;2023-05-16T06:33:17;12.70;69.50
2929;DHT22;1474;51.460;7.150;2023-05-16T06:35:43;12.70;67.90
2929;DHT22;1474;51.460;7.150;2023-05-16T06:38:09;12.70;69.20
2929;DHT22;1474;51.460;7.150;2023-05-16T06:40:34;12.80;70.00
2929;DHT22;1474;51.460;7.150;2023-05-16T06:43:01;12.90;69.40
2929;DHT22;1474;51.460;7.150;2023-05-16T06:45:26;12.80;65.00
2929;DHT22;1474;51.460;7.150;2023-05-16T06:47:52;12.90;69.50
2929;DHT22;1474;51.460;7.150;2023-05-16T06:50:18;12.90;67.90
2929;DHT22;1474;51.460;7.150;2023-05-16T06:52:44;12.90;67.40
2929;DHT22;1474;51.460;7.150;2023-05-16T06:55:09;12.90;68.40
2929;DHT22;1474;51.460;7.150;2023-05-16T06:57:35;13.10;67.80
2929;DHT22;1474;51.460;7.150;2023-05-16T07:00:01;13.20;65.40
2929;DHT22;1474;51.460;7.150;2023-05-16T07:02:27;13.20;68.00
2929;DHT22;1474;51.460;7.150;2023-05-16T07:04:53;13.40;67.50
2929;DHT22;1474;51.460;7.150;2023-05-16T07:07:19;13.50;64.80
2929;DHT22;1474;51.460;7.150;2023-05-16T07:09:45;13.50;65.40
2929;DHT22;1474;51.460;7.150;2023-05-16T07:12:10;13.50;62.90
2929;DHT22;1474;51.460;7.150;2023-05-16T07:14:36;13.60;66.20
2929;DHT22;1474;51.460;7.150;2023-05-16T07:17:02;13.70;63.40
2929;DHT22;1474;51.460;7.150;2023-05-16T07:19:28;13.70;62.80
2929;DHT22;1474;51.460;7.150;2023-05-16T07:21:54;13.70;61.80
2929;DHT22;1474;51.460;7.150;2023-05-16T07:24:20;13.70;61.10
2929;DHT22;1474;51.460;7.150;2023-05-16T07:26:46;13.80;62.50
2929;DHT22;1474;51.460;7.150;2023-05-16T07:29:11;13.90;60.90
2929;DHT22;1474;51.460;7.150;2023-05-16T07:31:37;13.90;59.90
2929;DHT22;1474;51.460;7.150;2023-05-16T07:34:03;13.80;59.50
2929;DHT22;1474;51.460;7.150;2023-05-16T07:36:29;13.70;59.10
2929;DHT22;1474;51.460;7.150;2023-05-16T07:38:55;13.60;60.90
2929;DHT22;1474;51.460;7.150;2023-05-16T07:41:21;13.60;58.70
2929;DHT22;1474;51.460;7.150;2023-05-16T07:43:47;13.50;58.60
2929;DHT22;1474;51.460;7.150;2023-05-16T07:46:12;13.50;59.50
2929;DHT22;1474;51.460;7.150;2023-05-16T07:48:38;13.40;57.70
2929;DHT22;1474;51.460;7.150;2023-05-16T07:51:04;13.40;57.50
2929;DHT22;1474;51.460;7.150;2023-05-16T07:53:30;13.50;60.10
2929;DHT22;1474;51.460;7.150;2023-05-16T07:55:56;13.60;58.50
2929;DHT22;1474;51.460;7.150;2023-05-16T07:58:22;13.80;59.00
2929;DHT22;1474;51.460;7.150;2023-05-16T08:00:48;14.10;58.70
2929;DHT22;1474;51.460;7.150;2023-05-16T08:03:13;14.30;58.40
2929;DHT22;1474;51.460;7.150;2023-05-16T08:05:40;14.40;54.40
2929;DHT22;1474;51.460;7.150;2023-05-16T08:08:05;14.60;56.80
2929;DHT22;1474;51.460;7.150;2023-05-16T08:10:31;14.90;56.10
2929;DHT22;1474;51.460;7.150;2023-05-16T08:12:57;15.10;53.30
2929;DHT22;1474;51.460;7.150;2023-05-16T08:15:25;15.20;53.50
2929;DHT22;1474;51.460;7.150;2023-05-16T08:17:55;15.30;54.20
2929;DHT22;1474;51.460;7.150;2023-05-16T08:20:22;15.30;49.80
2929;DHT22;1474;51.460;7.150;2023-05-16T08:22:49;15.50;54.20
2929;DHT22;1474;51.460;7.150;2023-05-16T08:25:15;15.60;51.40
2929;DHT22;1474;51.460;7.150;2023-05-16T08:27:41;15.70;50.30
2929;DHT22;1474;51.460;7.150;2023-05-16T08:30:07;15.70;50.60
2929;DHT22;1474;51.460;7.150;2023-05-16T08:32:34;15.70;50.80
2929;DHT22;1474;51.460;7.150;2023-05-16T08:35:00;15.60;49.20
2929;DHT22;1474;51.460;7.150;2023-05-16T08:37:25;15.40;51.60
2929;DHT22;1474;51.460;7.150;2023-05-16T08:39:51;15.40;50.40
2929;DHT22;1474;51.460;7.150;2023-05-16T08:42:17;15.30;50.50
2929;DHT22;1474;51.460;7.150;2023-05-16T08:44:43;15.10;50.50
2929;DHT22;1474;51.460;7.150;2023-05-16T08:47:17;15.20;53.00
2929;DHT22;1474;51.460;7.150;2023-05-16T08:49:47;15.50;50.80
2929;DHT22;1474;51.460;7.150;2023-05-16T08:52:18;15.80;51.80
2929;DHT22;1474;51.460;7.150;2023-05-16T08:54:47;16.00;49.40
2929;DHT22;1474;51.460;7.150;2023-05-16T08:57:15;16.20;48.70
2929;DHT22;1474;51.460;7.150;2023-05-16T08:59:42;16.30;52.50
2929;DHT22;1474;51.460;7.150;2023-05-16T09:02:09;16.50;46.80
2929;DHT22;1474;51.460;7.150;2023-05-16T09:04:37;16.80;49.10
2929;DHT22;1474;51.460;7.150;2023-05-16T09:07:03;17.00;47.40
2929;DHT22;1474;51.460;7.150;2023-05-16T09:09:29;17.10;48.00
2929;DHT22;1474;51.460;7.150;2023-05-16T09:11:55;17.20;48.10
2929;DHT22;1474;51.460;7.150;2023-05-16T09:14:21;17.40;48.20
2929;DHT22;1474;51.460;7.150;2023-05-16T09:17:05;17.60;47.40
2929;DHT22;1474;51.460;7.150;2023-05-16T09:19:39;17.70;48.90
2929;DHT22;1474;51.460;7.150;2023-05-16T09:22:13;17.90;44.20
2929;DHT22;1474;51.460;7.150;2023-05-16T09:24:41;18.00;45.00
2929;DHT22;1474;51.460;7.150;2023-05-16T09:27:13;18.10;46.00
2929;DHT22;1474;51.460;7.150;2023-05-16T09:29:43;18.30;45.20
2929;DHT22;1474;51.460;7.150;2023-05-16T09:32:15;18.50;45.50
2929;DHT22;1474;51.460;7.150;2023-05-16T09:34:46;18.50;44.30
2929;DHT22;1474;51.460;7.150;2023-05-16T09:37:22;18.30;44.20
2929;DHT22;1474;51.460;7.150;2023-05-16T09:39:52;18.00;44.00
2929;DHT22;1474;51.460;7.150;2023-05-16T09:42:21;18.00;47.40
2929;DHT22;1474;51.460;7.150;2023-05-16T09:44:52;18.00;46.00
2929;DHT22;1474;51.460;7.150;2023-05-16T09:47:20;18.00;45.10
2929;DHT22;1474;51.460;7.150;2023-05-16T09:49:51;18.00;44.60
2929;DHT22;1474;51.460;7.150;2023-05-16T09:52:18;17.90;43.10
2929;DHT22;1474;51.460;7.150;2023-05-16T09:54:46;17.70;43.50
2929;DHT22;1474;51.460;7.150;2023-05-16T09:57:19;17.50;45.30
2929;DHT22;1474;51.460;7.150;2023-05-16T09:59:46;17.40;45.90
2929;DHT22;1474;51.460;7.150;2023-05-16T10:02:13;17.40;46.90
2929;DHT22;1474;51.460;7.150;2023-05-16T10:04:39;17.60;44.10
2929;DHT22;1474;51.460;7.150;2023-05-16T10:07:05;17.70;45.60
2929;DHT22;1474;51.460;7.150;2023-05-16T10:09:34;17.90;42.80
2929;DHT22;1474;51.460;7.150;2023-05-16T10:12:02;17.80;43.40
2929;DHT22;1474;51.460;7.150;2023-05-16T10:14:35;17.70;44.40
2929;DHT22;1474;51.460;7.150;2023-05-16T10:17:06;17.60;43.40
2929;DHT22;1474;51.460;7.150;2023-05-16T10:19:38;17.60;43.50
2929;DHT22;1474;51.460;7.150;2023-05-16T10:22:06;17.50;44.80
2929;DHT22;1474;51.460;7.150;2023-05-16T10:24:52;17.40;44.50
2929;DHT22;1474;51.460;7.150;2023-05-16T10:27:41;17.40;44.20
2929;DHT22;1474;51.460;7.150;2023-05-16T10:30:08;17.30;44.40
2929;DHT22;1474;51.460;7.150;2023-05-16T10:32:35;17.10;44.90
2929;DHT22;1474;51.460;7.150;2023-05-16T10:35:03;17.20;47.60
2929;DHT22;1474;51.460;7.150;2023-05-16T10:37:32;17.30;48.10
2929;DHT22;1474;51.460;7.150;2023-05-16T10:40:00;17.50;45.70
2929;DHT22;1474;51.460;7.150;2023-05-16T10:42:26;17.50;44.50
2929;DHT22;1474;51.460;7.150;2023-05-16T10:45:10;17.30;46.10
2929;DHT22;1474;51.460;7.150;2023-05-16T10:47:53;17.10;46.30
2929;DHT22;1474;51.460;7.150;2023-05-16T10:50:33;16.80;47.40
2929;DHT22;1474;51.460;7.150;2023-05-16T10:53:24;16.60;47.30
2929;DHT22;1474;51.460;7.150;2023-05-16T11:01:32;16.30;48.40
2929;DHT22;1474;51.460;7.150;2023-05-16T11:04:05;16.40;48.60
2929;DHT22;1474;51.460;7.150;2023-05-16T11:12:01;17.30;47.50
2929;DHT22;1474;51.460;7.150;2023-05-16T11:14:35;17.50;46.20
2929;DHT22;1474;51.460;7.150;2023-05-16T11:17:10;17.70;46.70
2929;DHT22;1474;51.460;7.150;2023-05-16T11:19:48;17.80;45.90
2929;DHT22;1474;51.460;7.150;2023-05-16T11:25:06;17.60;45.80
2929;DHT22;1474;51.460;7.150;2023-05-16T11:27:44;17.70;47.60
2929;DHT22;1474;51.460;7.150;2023-05-16T11:30:16;17.70;46.10
2929;DHT22;1474;51.460;7.150;2023-05-16T11:32:45;17.70;45.40
2929;DHT22;1474;51.460;7.150;2023-05-16T11:35:16;17.80;46.30
2929;DHT22;1474;51.460;7.150;2023-05-16T11:37:43;17.80;46.90
2929;DHT22;1474;51.460;7.150;2023-05-16T11:40:12;18.00;45.80
2929;DHT22;1474;51.460;7.150;2023-05-16T11:42:59;17.90;45.00
2929;DHT22;1474;51.460;7.150;2023-05-16T11:45:28;17.60;44.60
2929;DHT22;1474;51.460;7.150;2023-05-16T11:48:01;17.30;47.50
2929;DHT22;1474;51.460;7.150;2023-05-16T11:50:29;17.20;48.50
2929;DHT22;1474;51.460;7.150;2023-05-16T11:52:55;16.90;49.90
2929;DHT22;1474;51.460;7.150;2023-05-16T11:55:26;16.90;49.80
2929;DHT22;1474;51.460;7.150;2023-05-16T11:57:56;16.90;51.80
2929;DHT22;1474;51.460;7.150;2023-05-16T12:00:24;16.80;49.20
2929;DHT22;1474;51.460;7.150;2023-05-16T12:02:52;16.70;48.30
2929;DHT22;1474;51.460;7.150;2023-05-16T12:05:20;16.70;49.10
2929;DHT22;1474;51.460;7.150;2023-05-16T12:07:51;16.60;50.00
2929;DHT22;1474;51.460;7.150;2023-05-16T12:10:20;16.70;51.00
2929;DHT22;1474;51.460;7.150;2023-05-16T12:12:48;17.00;49.30
2929;DHT22;1474;51.460;7.150;2023-05-16T12:15:17;17.20;49.40
2929;DHT22;1474;51.460;7.150;2023-05-16T12:17:44;17.40;48.10
2929;DHT22;1474;51.460;7.150;2023-05-16T12:20:11;17.70;47.60
2929;DHT22;1474;51.460;7.150;2023-05-16T12:22:45;18.00;46.60
2929;DHT22;1474;51.460;7.150;2023-05-16T12:25:28;18.10;46.10
2929;DHT22;1474;51.460;7.150;2023-05-16T12:27:58;18.40;47.70
2929;DHT22;1474;51.460;7.150;2023-05-16T12:30:26;18.50;45.10
2929;DHT22;1474;51.460;7.150;2023-05-16T12:32:58;18.50;44.90
2929;DHT22;1474;51.460;7.150;2023-05-16T12:35:32;18.40;45.20
2929;DHT22;1474;51.460;7.150;2023-05-16T12:37:59;18.30;45.30
2929;DHT22;1474;51.460;7.150;2023-05-16T12:40:29;18.10;45.90
2929;DHT22;1474;51.460;7.150;2023-05-16T12:42:56;17.60;45.80
2929;DHT22;1474;51.460;7.150;2023-05-16T12:45:22;17.40;47.60
2929;DHT22;1474;51.460;7.150;2023-05-16T12:47:49;17.30;49.00
2929;DHT22;1474;51.460;7.150;2023-05-16T12:50:16;17.40;48.50
2929;DHT22;1474;51.460;7.150;2023-05-16T12:52:53;17.60;49.60
2929;DHT22;1474;51.460;7.150;2023-05-16T12:55:26;17.80;47.40
2929;DHT22;1474;51.460;7.150;2023-05-16T12:57:54;18.00;45.30
2929;DHT22;1474;51.460;7.150;2023-05-16T13:00:21;18.00;46.20
2929;DHT22;1474;51.460;7.150;2023-05-16T13:02:47;18.00;45.40
2929;DHT22;1474;51.460;7.150;2023-05-16T13:05:14;17.90;43.90
2929;DHT22;1474;51.460;7.150;2023-05-16T13:07:40;17.60;45.00
2929;DHT22;1474;51.460;7.150;2023-05-16T13:10:10;17.20;46.30
2929;DHT22;1474;51.460;7.150;2023-05-16T13:12:40;17.00;46.60
2929;DHT22;1474;51.460;7.150;2023-05-16T13:15:07;16.90;45.70
2929;DHT22;1474;51.460;7.150;2023-05-16T13:17:35;16.80;45.20
2929;DHT22;1474;51.460;7.150;2023-05-16T13:20:05;16.90;49.20
2929;DHT22;1474;51.460;7.150;2023-05-16T13:22:34;17.20;45.00
2929;DHT22;1474;51.460;7.150;2023-05-16T13:25:01;17.50;43.90
2929;DHT22;1474;51.460;7.150;2023-05-16T13:27:29;17.70;44.40
2929;DHT22;1474;51.460;7.150;2023-05-16T13:29:55;18.00;43.60
2929;DHT22;1474;51.460;7.150;2023-05-16T13:32:21;18.00;43.10
2929;DHT22;1474;51.460;7.150;2023-05-16T13:34:47;18.00;41.50
2929;DHT22;1474;51.460;7.150;2023-05-16T13:37:13;17.90;41.20
2929;DHT22;1474;51.460;7.150;2023-05-16T13:39:38;17.80;43.30
2929;DHT22;1474;51.460;7.150;2023-05-16T13:42:05;17.70;42.60
2929;DHT22;1474;51.460;7.150;2023-05-16T13:44:31;17.50;44.10
2929;DHT22;1474;51.460;7.150;2023-05-16T13:46:57;17.40;44.60
2929;DHT22;1474;51.460;7.150;2023-05-16T13:49:23;17.40;44.10
2929;DHT22;1474;51.460;7.150;2023-05-16T13:51:50;17.30;45.20
2929;DHT22;1474;51.460;7.150;2023-05-16T13:54:17;17.10;43.40
2929;DHT22;1474;51.460;7.150;2023-05-16T13:56:43;17.10;44.80
2929;DHT22;1474;51.460;7.150;2023-05-16T13:59:09;17.10;44.40
2929;DHT22;1474;51.460;7.150;2023-05-16T14:01:35;17.30;43.20
2929;DHT22;1474;51.460;7.150;2023-05-16T14:04:02;17.30;44.80
2929;DHT22;1474;51.460;7.150;2023-05-16T14:06:28;17.40;43.40
2929;DHT22;1474;51.460;7.150;2023-05-16T14:08:54;17.20;42.50
2929;DHT22;1474;51.460;7.150;2023-05-16T14:11:19;17.10;44.00
2929;DHT22;1474;51.460;7.150;2023-05-16T14:13:50;17.10;43.40
2929;DHT22;1474;51.460;7.150;2023-05-16T14:16:17;17.10;43.30
2929;DHT22;1474;51.460;7.150;2023-05-16T14:18:43;17.00;42.20
2929;DHT22;1474;51.460;7.150;2023-05-16T14:21:08;16.90;44.00
2929;DHT22;1474;51.460;7.150;2023-05-16T14:23:34;16.80;44.20
2929;DHT22;1474;51.460;7.150;2023-05-16T14:26:00;16.60;41.90
2929;DHT22;1474;51.460;7.150;2023-05-16T14:28:27;16.50;44.70
2929;DHT22;1474;51.460;7.150;2023-05-16T14:30:53;16.50;45.00
2929;DHT22;1474;51.460;7.150;2023-05-16T14:33:19;16.50;44.40
2929;DHT22;1474;51.460;7.150;2023-05-16T14:35:44;16.40;44.30
2929;DHT22;1474;51.460;7.150;2023-05-16T14:38:10;16.50;44.10
2929;DHT22;1474;51.460;7.150;2023-05-16T14:40:36;16.60;45.90
2929;DHT22;1474;51.460;7.150;2023-05-16T14:43:02;16.60;45.60
2929;DHT22;1474;51.460;7.150;2023-05-16T14:45:30;16.70;44.80
2929;DHT22;1474;51.460;7.150;2023-05-16T14:47:56;16.80;45.60
2929;DHT22;1474;51.460;7.150;2023-05-16T14:50:22;16.80;45.50
2929;DHT22;1474;51.460;7.150;2023-05-16T14:52:48;16.80;47.30
2929;DHT22;1474;51.460;7.150;2023-05-16T14:55:14;16.80;47.00
2929;DHT22;1474;51.460;7.150;2023-05-16T14:57:40;16.70;44.40
2929;DHT22;1474;51.460;7.150;2023-05-16T15:00:06;16.70;45.20
2929;DHT22;1474;51.460;7.150;2023-05-16T15:02:35;16.60;46.00
2929;DHT22;1474;51.460;7.150;2023-05-16T15:05:00;16.50;45.80
2929;DHT22;1474;51.460;7.150;2023-05-16T15:07:26;16.40;46.40
2929;DHT22;1474;51.460;7.150;2023-05-16T15:09:52;16.20;46.70
2929;DHT22;1474;51.460;7.150;2023-05-16T15:12:17;16.10;47.60
2929;DHT22;1474;51.460;7.150;2023-05-16T15:14:43;16.00;46.40
2929;DHT22;1474;51.460;7.150;2023-05-16T15:17:09;15.90;48.70
2929;DHT22;1474;51.460;7.150;2023-05-16T15:19:35;15.80;47.30
2929;DHT22;1474;51.460;7.150;2023-05-16T15:22:00;15.70;49.20
2929;DHT22;1474;51.460;7.150;2023-05-16T15:24:26;15.60;49.20
2929;DHT22;1474;51.460;7.150;2023-05-16T15:26:52;15.50;49.40
2929;DHT22;1474;51.460;7.150;2023-05-16T15:29:18;15.50;50.70
2929;DHT22;1474;51.460;7.150;2023-05-16T15:31:44;15.50;51.80
2929;DHT22;1474;51.460;7.150;2023-05-16T15:34:10;15.50;50.60
2929;DHT22;1474;51.460;7.150;2023-05-16T15:36:36;15.50;50.10
2929;DHT22;1474;51.460;7.150;2023-05-16T15:39:02;15.50;48.10
2929;DHT22;1474;51.460;7.150;2023-05-16T15:41:28;15.60;49.70
2929;DHT22;1474;51.460;7.150;2023-05-16T15:43:54;15.60;48.80
2929;DHT22;1474;51.460;7.150;2023-05-16T15:46:20;15.60;50.50
2929;DHT22;1474;51.460;7.150;2023-05-16T15:48:46;15.50;49.70
2929;DHT22;1474;51.460;7.150;2023-05-16T15:51:12;15.40;49.40
2929;DHT22;1474;51.460;7.150;2023-05-16T15:53:38;15.40;50.20
2929;DHT22;1474;51.460;7.150;2023-05-16T15:56:04;15.30;48.40
2929;DHT22;1474;51.460;7.150;2023-05-16T15:58:30;15.40;48.80
2929;DHT22;1474;51.460;7.150;2023-05-16T16:00:56;15.40;48.40
2929;DHT22;1474;51.460;7.150;2023-05-16T16:03:22;15.40;49.90
2929;DHT22;1474;51.460;7.150;2023-05-16T16:05:49;15.40;50.10
2929;DHT22;1474;51.460;7.150;2023-05-16T16:08:16;15.50;49.90
2929;DHT22;1474;51.460;7.150;2023-05-16T16:10:43;15.50;49.40
2929;DHT22;1474;51.460;7.150;2023-05-16T16:13:08;15.50;48.10
2929;DHT22;1474;51.460;7.150;2023-05-16T16:15:34;15.50;48.90
2929;DHT22;1474;51.460;7.150;2023-05-16T16:18:00;15.40;48.80
2929;DHT22;1474;51.460;7.150;2023-05-16T16:20:26;15.40;49.50
2929;DHT22;1474;51.460;7.150;2023-05-16T16:22:52;15.40;50.20
2929;DHT22;1474;51.460;7.150;2023-05-16T16:25:18;15.30;49.70
2929;DHT22;1474;51.460;7.150;2023-05-16T16:27:44;15.30;50.90
2929;DHT22;1474;51.460;7.150;2023-05-16T16:30:10;15.30;50.00
2929;DHT22;1474;51.460;7.150;2023-05-16T16:32:36;15.30;52.00
2929;DHT22;1474;51.460;7.150;2023-05-16T16:35:03;15.30;50.20